Time;durP1;ratioP1;P1;durP2;ratioP2;P2;SDS_P1;SDS_P2;PMS_P1;PMS_P2;Temp;Humidity;BMP_temperature;BMP_pressure;BME280_temperature;BME280_humidity;BME280_pressure;Samples;Min_cycle;Max_cycle;Signal;HPM_P1;HPM_P2
2023/01/20 00:01:45;;;;;;;6.07;5.25;;;4.40;99.90;;;;;;5070384;28;20176;-78
2023/01/20 00:04:11;;;;;;;6.60;5.10;;;4.40;99.90;;;;;;5071665;28;20176;-77
2023/01/20 00:06:37;;;;;;;8.60;5.95;;;4.40;99.90;;;;;;5058726;28;20188;-77
2023/01/20 00:09:04;;;;;;;7.00;5.47;;;4.30;99.90;;;;;;5071273;28;20711;-77
2023/01/20 00:11:30;;;;;;;6.38;5.47;;;4.40;99.90;;;;;;5035992;28;20642;-77
2023/01/20 00:13:57;;;;;;;8.95;5.55;;;4.30;99.90;;;;;;5070995;28;20528;-77
2023/01/20 00:16:24;;;;;;;6.65;5.65;;;4.30;99.90;;;;;;5071052;28;20215;-77
2023/01/20 00:18:49;;;;;;;8.55;5.95;;;4.30;99.90;;;;;;5052972;28;20640;-77
2023/01/20 00:21:15;;;;;;;7.13;5.20;;;4.30;99.90;;;;;;5070288;28;20180;-77
2023/01/20 00:23:41;;;;;;;8.47;6.30;;;4.20;99.90;;;;;;5052946;28;20574;-77
2023/01/20 00:26:16;;;;;;;13.05;6.60;;;4.20;99.90;;;;;;5052697;28;20665;-77
2023/01/20 00:28:42;;;;;;;7.15;5.57;;;4.20;99.90;;;;;;5070724;28;20172;-77
2023/01/20 00:31:20;;;;;;;8.52;6.65;;;4.20;99.90;;;;;;5035314;28;20595;-77
2023/01/20 00:33:47;;;;;;;11.85;6.45;;;4.20;99.90;;;;;;5053085;28;20172;-77
2023/01/20 00:36:14;;;;;;;8.05;6.05;;;4.10;99.90;;;;;;5053068;28;20307;-77
2023/01/20 00:38:40;;;;;;;7.32;5.90;;;4.10;99.90;;;;;;5052552;28;20543;-77
2023/01/20 00:41:07;;;;;;;10.13;5.63;;;4.00;99.90;;;;;;5070051;28;20168;-77
2023/01/20 00:43:33;;;;;;;9.52;6.13;;;4.00;99.90;;;;;;5039805;28;20176;-77
2023/01/20 00:46:15;;;;;;;8.25;5.93;;;4.00;99.90;;;;;;5032885;28;20295;-77
2023/01/20 00:48:41;;;;;;;10.55;5.85;;;3.90;99.90;;;;;;5052592;28;20172;-77
2023/01/20 00:51:08;;;;;;;9.20;5.50;;;3.90;99.90;;;;;;5051672;28;20176;-77
2023/01/20 00:53:35;;;;;;;11.73;5.90;;;3.80;99.90;;;;;;5052327;28;20266;-77
2023/01/20 00:56:01;;;;;;;10.48;5.22;;;3.80;99.90;;;;;;5051932;28;20326;-77
2023/01/20 00:58:26;;;;;;;9.37;5.80;;;3.70;99.90;;;;;;5052090;28;20172;-77
2023/01/20 01:00:54;;;;;;;9.17;5.90;;;3.70;99.90;;;;;;5051017;28;20597;-77
2023/01/20 01:03:20;;;;;;;11.40;5.80;;;3.70;99.90;;;;;;5052196;28;20180;-77
2023/01/20 01:05:46;;;;;;;9.32;6.18;;;3.60;99.90;;;;;;5052187;28;20168;-77
2023/01/20 01:08:12;;;;;;;8.50;5.65;;;3.60;99.90;;;;;;5052194;28;20661;-77
2023/01/20 01:10:39;;;;;;;9.18;7.10;;;3.60;99.90;;;;;;5069353;28;20176;-77
2023/01/20 01:13:05;;;;;;;9.30;5.60;;;3.50;99.90;;;;;;5069900;28;20180;-77
2023/01/20 01:15:31;;;;;;;8.57;6.03;;;3.50;99.90;;;;;;5051312;28;20172;-77
2023/01/20 01:17:58;;;;;;;6.90;5.90;;;3.40;99.90;;;;;;5069873;28;20172;-76
2023/01/20 01:20:25;;;;;;;10.95;7.30;;;3.40;99.90;;;;;;5054807;28;20314;-76
2023/01/20 01:22:50;;;;;;;8.77;5.72;;;3.40;99.90;;;;;;5051398;28;20263;-76
2023/01/20 01:25:16;;;;;;;6.97;5.80;;;3.40;99.90;;;;;;5069840;28;20290;-76
2023/01/20 01:27:42;;;;;;;11.43;7.00;;;3.40;99.90;;;;;;5068736;28;20200;-76
2023/01/20 01:30:08;;;;;;;9.47;6.67;;;3.40;99.90;;;;;;5069192;28;20670;-77
2023/01/20 01:32:34;;;;;;;12.70;6.50;;;3.40;99.90;;;;;;5050971;28;20287;-76
2023/01/20 01:35:00;;;;;;;7.20;5.00;;;3.40;99.90;;;;;;5051672;28;20259;-76
2023/01/20 01:37:27;;;;;;;8.15;6.35;;;3.40;99.90;;;;;;5051006;28;20200;-77
2023/01/20 01:39:53;;;;;;;8.85;6.60;;;3.30;99.90;;;;;;5051241;28;20559;-76
2023/01/20 01:42:22;;;;;;;10.00;6.80;;;3.30;99.90;;;;;;5050965;28;20180;-77
2023/01/20 01:45:10;;;;;;;9.77;6.32;;;3.30;99.90;;;;;;5051562;28;20590;-76
2023/01/20 01:48:06;;;;;;;8.50;6.15;;;3.30;99.90;;;;;;5069125;28;20188;-76
2023/01/20 01:50:44;;;;;;;9.13;5.88;;;3.30;99.90;;;;;;5061334;28;20559;-76
2023/01/20 01:53:12;;;;;;;10.80;6.43;;;3.30;99.90;;;;;;5068699;28;20184;-76
2023/01/20 01:55:42;;;;;;;12.10;6.80;;;3.20;99.90;;;;;;5051368;28;20180;-76
2023/01/20 01:58:13;;;;;;;13.25;6.80;;;3.20;99.90;;;;;;5073394;28;20173;-76
2023/01/20 02:00:39;;;;;;;10.50;6.05;;;3.20;99.90;;;;;;5034436;28;20192;-76
2023/01/20 02:03:06;;;;;;;13.50;6.22;;;3.20;99.90;;;;;;5054550;28;20267;-76
2023/01/20 02:05:34;;;;;;;9.07;6.25;;;3.10;99.90;;;;;;5031388;28;20173;-76
2023/01/20 02:07:59;;;;;;;10.35;7.05;;;3.10;99.90;;;;;;5031133;28;20541;-76
2023/01/20 02:10:26;;;;;;;9.43;5.50;;;3.10;99.90;;;;;;5051396;28;20172;-77
2023/01/20 02:12:52;;;;;;;8.40;6.20;;;3.10;99.90;;;;;;5055046;28;20170;-76
2023/01/20 02:15:26;;;;;;;9.77;6.78;;;3.00;99.90;;;;;;5073447;28;20937;-76
2023/01/20 02:18:15;;;;;;;11.70;7.10;;;3.00;99.90;;;;;;5055089;28;20207;-76
2023/01/20 02:20:46;;;;;;;9.73;6.75;;;3.00;99.90;;;;;;5046490;28;20550;-76
2023/01/20 02:23:15;;;;;;;10.88;6.57;;;3.00;99.90;;;;;;5054888;28;20176;-76
2023/01/20 02:25:57;;;;;;;9.90;6.22;;;2.90;99.90;;;;;;5054937;28;20594;-76
2023/01/20 02:28:32;;;;;;;11.75;6.30;;;2.90;99.90;;;;;;5055225;28;20263;-76
2023/01/20 02:31:19;;;;;;;9.75;6.22;;;2.90;99.90;;;;;;5054517;28;20170;-76
2023/01/20 02:33:58;;;;;;;9.75;6.35;;;2.90;99.90;;;;;;5055375;28;20169;-76
2023/01/20 02:36:40;;;;;;;9.45;6.60;;;2.90;99.90;;;;;;5058790;28;20667;-76
2023/01/20 02:39:26;;;;;;;11.60;6.93;;;2.80;99.90;;;;;;5055040;28;20193;-76
2023/01/20 02:41:55;;;;;;;11.88;6.88;;;2.80;99.90;;;;;;5054236;28;20172;-76
2023/01/20 02:44:45;;;;;;;9.63;5.88;;;2.80;99.90;;;;;;5054808;28;20168;-77
2023/01/20 02:47:31;;;;;;;8.25;6.43;;;2.80;99.90;;;;;;5054866;28;20279;-77
2023/01/20 02:50:07;;;;;;;8.65;6.78;;;2.80;99.90;;;;;;5057556;28;20188;-76
2023/01/20 02:52:41;;;;;;;8.52;5.63;;;2.80;99.90;;;;;;5072644;28;20191;-77
2023/01/20 02:55:11;;;;;;;7.25;5.80;;;2.80;99.90;;;;;;5072451;28;20172;-76
2023/01/20 02:57:46;;;;;;;7.45;5.97;;;2.80;99.90;;;;;;5054941;28;20586;-77
2023/01/20 03:00:38;;;;;;;11.60;7.30;;;2.80;99.90;;;;;;5072043;28;20543;-77
2023/01/20 03:03:14;;;;;;;9.95;6.95;;;2.80;99.90;;;;;;5053897;28;20585;-76
2023/01/20 03:05:46;;;;;;;9.68;6.40;;;2.80;99.90;;;;;;5073313;28;20164;-75
2023/01/20 03:08:13;;;;;;;11.80;7.53;;;2.90;99.90;;;;;;5073027;28;20904;-77
2023/01/20 03:10:41;;;;;;;10.85;6.57;;;2.90;99.90;;;;;;5055019;28;20172;-76
2023/01/20 03:13:20;;;;;;;11.27;6.53;;;2.90;99.90;;;;;;5058267;28;20169;-76
2023/01/20 03:16:00;;;;;;;8.30;5.70;;;3.00;99.90;;;;;;5054708;28;20219;-76
2023/01/20 03:18:31;;;;;;;11.52;7.82;;;3.00;99.90;;;;;;5072279;28;20695;-77
2023/01/20 03:20:58;;;;;;;10.75;6.60;;;3.10;99.90;;;;;;5071874;28;20198;-77
2023/01/20 03:23:30;;;;;;;10.63;7.28;;;3.10;99.90;;;;;;5070952;28;20226;-77
2023/01/20 03:25:57;;;;;;;11.95;8.05;;;3.10;99.90;;;;;;5053780;28;20220;-76
2023/01/20 03:28:22;;;;;;;11.93;6.50;;;3.10;99.90;;;;;;5053872;28;20176;-77
2023/01/20 03:30:48;;;;;;;12.50;7.57;;;3.10;99.90;;;;;;5086195;28;20659;-76
2023/01/20 03:33:16;;;;;;;9.95;7.10;;;3.10;99.90;;;;;;5073276;28;20245;-77
2023/01/20 03:35:42;;;;;;;10.45;7.00;;;3.10;99.90;;;;;;5092174;28;20172;-76
2023/01/20 03:38:08;;;;;;;10.93;6.93;;;3.10;99.90;;;;;;5073589;28;20168;-76
2023/01/20 03:40:45;;;;;;;10.20;6.65;;;3.10;99.90;;;;;;5073567;28;20199;-76
2023/01/20 03:43:28;;;;;;;12.07;5.72;;;3.10;99.90;;;;;;5073435;28;20176;-76
2023/01/20 03:46:01;;;;;;;11.25;6.40;;;3.20;99.90;;;;;;5092057;28;20206;-75
2023/01/20 03:48:39;;;;;;;10.18;6.15;;;3.20;99.90;;;;;;5065488;28;20179;-76
2023/01/20 03:51:30;;;;;;;10.07;6.53;;;3.20;99.90;;;;;;5095182;28;20578;-76
2023/01/20 03:54:07;;;;;;;9.50;6.78;;;3.30;99.90;;;;;;5073466;28;20183;-76
2023/01/20 03:57:03;;;;;;;8.35;6.00;;;3.30;99.90;;;;;;5073417;28;20281;-76
2023/01/20 03:59:35;;;;;;;9.80;6.50;;;3.30;99.90;;;;;;5073332;28;20168;-77
2023/01/20 04:02:04;;;;;;;10.98;7.47;;;3.30;99.90;;;;;;5090962;28;20175;-76
2023/01/20 04:04:34;;;;;;;9.27;6.07;;;3.30;99.90;;;;;;5065346;28;20167;-77
2023/01/20 04:07:02;;;;;;;11.93;6.68;;;3.40;99.90;;;;;;5073285;28;20202;-77
2023/01/20 04:09:34;;;;;;;7.95;6.20;;;3.40;99.90;;;;;;5091335;28;20186;-76
2023/01/20 04:11:59;;;;;;;10.55;7.30;;;3.40;99.90;;;;;;5090708;28;20247;-77
2023/01/20 04:14:25;;;;;;;9.77;6.80;;;3.40;99.90;;;;;;5091234;28;20254;-76
2023/01/20 04:16:54;;;;;;;11.33;7.27;;;3.50;99.90;;;;;;5072486;28;20203;-76
2023/01/20 04:19:20;;;;;;;10.85;7.93;;;3.50;99.90;;;;;;5073058;28;21155;-76
2023/01/20 04:22:00;;;;;;;14.50;7.63;;;3.50;99.90;;;;;;5072144;28;20172;-76
2023/01/20 04:24:42;;;;;;;10.23;7.38;;;3.60;99.90;;;;;;5091357;28;20585;-76
2023/01/20 04:27:07;;;;;;;9.38;7.03;;;3.70;99.90;;;;;;5094534;28;20207;-77
2023/01/20 04:29:34;;;;;;;11.20;8.13;;;3.70;99.90;;;;;;5091351;28;20171;-76
2023/01/20 04:32:01;;;;;;;12.95;7.70;;;3.80;99.90;;;;;;5089919;28;20642;-77
2023/01/20 04:34:27;;;;;;;11.88;6.55;;;3.80;99.90;;;;;;5082784;28;20171;-77
2023/01/20 04:36:53;;;;;;;7.80;6.50;;;3.90;99.90;;;;;;5090615;28;20214;-77
2023/01/20 04:39:19;;;;;;;10.53;6.63;;;4.00;99.90;;;;;;5056007;28;20639;-77
2023/01/20 04:41:46;;;;;;;9.27;6.90;;;4.00;99.90;;;;;;5071794;28;20175;-76
2023/01/20 04:44:11;;;;;;;11.88;7.22;;;4.10;99.90;;;;;;5072555;28;20972;-77
2023/01/20 04:46:37;;;;;;;8.37;6.93;;;4.10;99.90;;;;;;5072247;28;20183;-77
2023/01/20 04:49:03;;;;;;;10.90;7.10;;;4.20;99.90;;;;;;5072689;28;20262;-77
2023/01/20 04:51:30;;;;;;;13.63;7.27;;;4.20;99.90;;;;;;5090114;28;20267;-76
2023/01/20 04:53:57;;;;;;;10.85;7.00;;;4.30;99.90;;;;;;5071977;28;20270;-76
2023/01/20 04:56:23;;;;;;;8.43;6.72;;;4.30;99.90;;;;;;5072341;28;20479;-76
2023/01/20 04:58:48;;;;;;;8.75;6.15;;;4.40;99.90;;;;;;5072263;28;20263;-76
2023/01/20 05:01:14;;;;;;;8.83;6.10;;;4.40;99.90;;;;;;5089658;28;20605;-76
2023/01/20 05:03:40;;;;;;;10.33;7.70;;;4.40;99.90;;;;;;5091341;28;21050;-76
2023/01/20 05:06:06;;;;;;;11.17;6.97;;;4.50;99.90;;;;;;5093097;28;20187;-76
2023/01/20 05:08:32;;;;;;;11.70;7.90;;;4.50;99.90;;;;;;5090349;28;20166;-76
2023/01/20 05:10:57;;;;;;;8.68;7.00;;;4.60;99.90;;;;;;5071669;28;20582;-76
2023/01/20 05:13:23;;;;;;;9.10;8.10;;;4.60;99.90;;;;;;5071713;28;20172;-76
2023/01/20 05:15:49;;;;;;;9.53;7.20;;;4.60;99.90;;;;;;5090014;28;20233;-76
2023/01/20 05:18:14;;;;;;;8.77;6.83;;;4.70;99.90;;;;;;5090278;28;20163;-76
2023/01/20 05:20:43;;;;;;;9.80;8.00;;;4.70;99.90;;;;;;5071317;28;20203;-76
2023/01/20 05:23:08;;;;;;;10.55;6.85;;;4.70;99.90;;;;;;5090055;28;20589;-76
2023/01/20 05:25:34;;;;;;;10.47;6.77;;;4.70;99.90;;;;;;5089522;28;20251;-76
2023/01/20 05:28:00;;;;;;;10.73;7.20;;;4.80;99.90;;;;;;5090300;28;20171;-76
2023/01/20 05:30:26;;;;;;;9.02;6.85;;;4.80;99.90;;;;;;5071047;28;20179;-76
2023/01/20 05:32:52;;;;;;;9.20;7.40;;;4.80;99.90;;;;;;5071576;28;20180;-76
2023/01/20 05:35:18;;;;;;;11.97;6.63;;;4.80;99.90;;;;;;5089629;28;20258;-76
2023/01/20 05:37:44;;;;;;;11.37;6.77;;;4.80;99.90;;;;;;5071811;28;20629;-76
2023/01/20 05:40:10;;;;;;;8.87;7.03;;;4.80;99.90;;;;;;5089575;28;20175;-76
2023/01/20 05:42:36;;;;;;;10.60;7.00;;;4.80;99.90;;;;;;5074198;28;20654;-76
2023/01/20 05:45:02;;;;;;;10.23;6.40;;;4.80;99.90;;;;;;5088766;28;20829;-76
2023/01/20 05:47:28;;;;;;;10.20;6.90;;;4.80;99.90;;;;;;5071623;28;20203;-76
2023/01/20 05:49:53;;;;;;;7.97;6.20;;;4.80;99.90;;;;;;5089538;28;20581;-77
2023/01/20 05:52:19;;;;;;;9.67;5.83;;;4.80;99.90;;;;;;5089306;28;21121;-76
2023/01/20 05:54:45;;;;;;;10.43;7.20;;;4.80;99.90;;;;;;5089808;28;20172;-76
2023/01/20 05:57:12;;;;;;;8.80;6.20;;;4.80;99.90;;;;;;5089306;28;20647;-76
2023/01/20 05:59:38;;;;;;;8.35;6.13;;;4.80;99.90;;;;;;5089359;28;20183;-76
2023/01/20 06:02:03;;;;;;;11.10;6.17;;;4.80;99.90;;;;;;5070957;28;20641;-76
2023/01/20 06:04:29;;;;;;;9.90;6.80;;;4.80;99.90;;;;;;5089511;28;20717;-76
2023/01/20 06:06:55;;;;;;;10.27;6.50;;;4.70;99.90;;;;;;5071087;28;20614;-76
2023/01/20 06:09:20;;;;;;;9.13;6.90;;;4.60;99.90;;;;;;5089584;28;20171;-76
2023/01/20 06:11:46;;;;;;;8.60;6.20;;;4.60;99.90;;;;;;5070580;28;20179;-76
2023/01/20 06:14:12;;;;;;;8.20;7.03;;;4.60;99.90;;;;;;5089445;28;20410;-76
2023/01/20 06:16:37;;;;;;;10.80;8.33;;;4.50;99.90;;;;;;5089170;28;20199;-76
2023/01/20 06:19:03;;;;;;;9.40;6.27;;;4.50;99.90;;;;;;5090841;28;20163;-76
2023/01/20 06:21:29;;;;;;;9.77;6.53;;;4.60;99.90;;;;;;5089125;28;20191;-76
2023/01/20 06:23:54;;;;;;;8.63;5.67;;;4.60;99.90;;;;;;5089009;28;20168;-76
2023/01/20 06:26:20;;;;;;;10.93;7.40;;;4.60;99.90;;;;;;5070550;28;20814;-76
2023/01/20 06:28:46;;;;;;;8.90;5.77;;;4.60;99.90;;;;;;5071089;28;20176;-76
2023/01/20 06:31:14;;;;;;;7.93;6.37;;;4.60;99.90;;;;;;5070676;28;20183;-76
2023/01/20 06:33:40;;;;;;;8.30;5.38;;;4.50;99.90;;;;;;5089382;28;20191;-76
2023/01/20 06:36:07;;;;;;;6.13;5.15;;;4.50;99.90;;;;;;5054408;28;20290;-75
2023/01/20 06:38:34;;;;;;;10.60;5.40;;;4.40;99.90;;;;;;5070748;28;20254;-76
2023/01/20 06:41:02;;;;;;;8.60;4.95;;;4.40;99.90;;;;;;5070230;28;20168;-76
2023/01/20 06:43:29;;;;;;;6.78;4.78;;;4.40;99.90;;;;;;5070539;28;20167;-76
2023/01/20 06:46:03;;;;;;;7.22;4.90;;;4.40;99.90;;;;;;5089452;28;20183;-76
2023/01/20 06:48:30;;;;;;;8.40;5.22;;;4.40;99.90;;;;;;5054125;28;20198;-77
2023/01/20 06:51:03;;;;;;;9.55;5.15;;;4.50;99.90;;;;;;5088577;28;20164;-77
2023/01/20 06:53:29;;;;;;;6.20;5.05;;;4.60;99.90;;;;;;5056707;28;20168;-76
2023/01/20 06:55:57;;;;;;;6.85;5.55;;;4.60;99.90;;;;;;5036323;28;20214;-76
2023/01/20 06:58:24;;;;;;;8.15;4.93;;;4.60;99.90;;;;;;5035915;28;20177;-75
2023/01/20 07:00:50;;;;;;;7.10;5.25;;;4.70;99.90;;;;;;5071877;28;20168;-75
2023/01/20 07:03:16;;;;;;;6.43;4.65;;;4.70;99.90;;;;;;5071795;28;20181;-76
2023/01/20 07:05:42;;;;;;;8.00;5.30;;;4.80;99.90;;;;;;5072257;28;20647;-75
2023/01/20 07:08:08;;;;;;;8.60;5.27;;;4.80;99.90;;;;;;5072555;28;20610;-76
2023/01/20 07:10:34;;;;;;;8.73;4.83;;;4.80;99.90;;;;;;5071609;28;20168;-75
2023/01/20 07:12:59;;;;;;;7.50;5.50;;;4.80;99.90;;;;;;5062489;28;20199;-75
2023/01/20 07:15:25;;;;;;;7.60;5.30;;;4.80;99.90;;;;;;5092324;28;20171;-75
2023/01/20 07:17:51;;;;;;;7.33;5.17;;;4.80;99.90;;;;;;5080887;28;20571;-76
2023/01/20 07:20:16;;;;;;;6.40;4.27;;;4.80;99.90;;;;;;5055332;28;20242;-76
2023/01/20 07:22:42;;;;;;;6.67;3.87;;;4.80;99.90;;;;;;5054580;28;20176;-77
2023/01/20 07:25:08;;;;;;;6.03;3.97;;;4.70;99.90;;;;;;5074046;28;20263;-77
2023/01/20 07:27:34;;;;;;;5.97;3.85;;;4.70;99.90;;;;;;5072802;28;20207;-77
2023/01/20 07:29:59;;;;;;;5.30;3.83;;;4.60;99.90;;;;;;5055628;28;20222;-77
2023/01/20 07:32:29;;;;;;;4.77;3.80;;;4.50;99.90;;;;;;5073161;28;20180;-77
2023/01/20 07:34:54;;;;;;;5.00;3.42;;;4.50;99.90;;;;;;5077489;28;20238;-77
2023/01/20 07:37:20;;;;;;;7.27;4.07;;;4.50;99.90;;;;;;5054693;28;20692;-77
2023/01/20 07:39:46;;;;;;;4.70;3.40;;;4.50;99.90;;;;;;5055204;28;20637;-80
2023/01/20 07:42:11;;;;;;;5.50;3.53;;;4.40;99.90;;;;;;5067886;28;20553;-79
2023/01/20 07:44:37;;;;;;;4.90;3.50;;;4.40;99.90;;;;;;5055499;28;20521;-78
2023/01/20 07:47:03;;;;;;;8.90;4.20;;;4.30;99.90;;;;;;5073834;28;20254;-78
2023/01/20 07:49:28;;;;;;;8.50;4.07;;;4.40;99.90;;;;;;5049568;28;20173;-77
2023/01/20 07:51:54;;;;;;;6.90;4.20;;;4.30;99.90;;;;;;5047622;28;20200;-77
2023/01/20 07:54:20;;;;;;;7.80;4.20;;;4.30;99.90;;;;;;5051722;28;20232;-78
2023/01/20 07:56:45;;;;;;;6.30;4.87;;;4.20;99.90;;;;;;5052084;28;20557;-78
2023/01/20 07:59:11;;;;;;;4.77;3.50;;;4.20;99.90;;;;;;5051626;28;20180;-78
2023/01/20 08:01:37;;;;;;;7.40;3.80;;;4.20;99.90;;;;;;5050654;28;20192;-78
2023/01/20 08:04:03;;;;;;;6.90;3.83;;;4.20;99.90;;;;;;5051676;28;20173;-78
2023/01/20 08:06:29;;;;;;;6.88;4.35;;;4.20;99.90;;;;;;5051784;28;20239;-78
2023/01/20 08:08:55;;;;;;;8.50;5.95;;;4.30;99.90;;;;;;5033344;28;20641;-75
2023/01/20 08:11:21;;;;;;;6.37;3.97;;;4.20;99.90;;;;;;5054185;28;20244;-76
2023/01/20 08:13:47;;;;;;;8.15;4.93;;;4.20;99.90;;;;;;5051169;28;20611;-76
2023/01/20 08:16:15;;;;;;;7.43;5.00;;;4.10;99.90;;;;;;5050910;28;20572;-76
2023/01/20 08:18:41;;;;;;;9.10;4.45;;;4.10;99.90;;;;;;5033212;28;20165;-77
2023/01/20 08:21:15;;;;;;;4.70;4.07;;;4.10;99.90;;;;;;5064862;28;20230;-77
2023/01/20 08:23:40;;;;;;;5.28;4.05;;;4.20;99.90;;;;;;5052722;28;20200;-76
2023/01/20 08:26:07;;;;;;;7.47;4.87;;;4.20;99.90;;;;;;5070326;28;20644;-76
2023/01/20 08:28:34;;;;;;;5.38;4.28;;;4.20;99.90;;;;;;5071019;28;20180;-76
2023/01/20 08:31:10;;;;;;;6.15;4.15;;;4.20;99.90;;;;;;5070209;28;20176;-76
2023/01/20 08:33:36;;;;;;;4.20;3.20;;;4.20;99.90;;;;;;5070985;28;20306;-76
2023/01/20 08:36:11;;;;;;;4.30;3.60;;;4.20;99.90;;;;;;5070023;28;20598;-76
2023/01/20 08:38:37;;;;;;;5.30;3.70;;;4.10;99.90;;;;;;5052658;28;20167;-76
2023/01/20 08:41:08;;;;;;;5.75;3.88;;;4.10;99.90;;;;;;5051887;28;20663;-76
2023/01/20 08:43:34;;;;;;;6.18;3.55;;;4.10;99.90;;;;;;5052736;28;20680;-77
2023/01/20 08:46:02;;;;;;;10.33;4.40;;;4.10;99.90;;;;;;5052873;28;20191;-76
2023/01/20 08:48:28;;;;;;;5.70;4.50;;;4.20;99.90;;;;;;5074312;28;20184;-77
2023/01/20 08:50:54;;;;;;;7.47;4.72;;;4.20;99.90;;;;;;5051923;28;20176;-76
2023/01/20 08:53:20;;;;;;;5.23;3.77;;;4.20;99.90;;;;;;5051897;28;20647;-77
2023/01/20 08:55:57;;;;;;;5.07;3.70;;;4.30;99.90;;;;;;5052401;28;20172;-77
2023/01/20 08:58:23;;;;;;;7.28;4.00;;;4.30;99.90;;;;;;5051963;28;20171;-77
2023/01/20 09:00:49;;;;;;;7.03;4.72;;;4.40;99.90;;;;;;5052440;28;20249;-78
2023/01/20 09:03:15;;;;;;;6.50;4.03;;;4.50;99.90;;;;;;5069924;28;20657;-78
2023/01/20 09:05:41;;;;;;;5.63;4.20;;;4.60;99.90;;;;;;5052184;28;20196;-77
2023/01/20 09:08:06;;;;;;;5.10;3.50;;;4.80;99.90;;;;;;5070200;28;20191;-77
2023/01/20 09:10:33;;;;;;;5.17;4.33;;;4.90;99.90;;;;;;5069810;28;20270;-77
2023/01/20 09:12:58;;;;;;;5.88;4.00;;;4.90;99.90;;;;;;5051627;28;20633;-77
2023/01/20 09:15:24;;;;;;;4.93;3.93;;;5.10;99.90;;;;;;5052108;28;20183;-77
2023/01/20 09:17:50;;;;;;;9.40;4.60;;;5.20;99.90;;;;;;5076308;28;20261;-76
2023/01/20 09:20:16;;;;;;;7.03;3.93;;;5.30;99.90;;;;;;5061112;28;20637;-79
2023/01/20 09:22:41;;;;;;;5.60;3.73;;;5.50;99.90;;;;;;5048195;28;20256;-78
2023/01/20 09:25:08;;;;;;;5.33;4.10;;;5.60;99.90;;;;;;5049652;28;20618;-78
2023/01/20 09:27:34;;;;;;;5.15;3.88;;;5.70;99.90;;;;;;5070904;28;20204;-78
2023/01/20 09:30:00;;;;;;;5.17;3.80;;;5.70;99.90;;;;;;5054419;28;20187;-77
2023/01/20 09:32:26;;;;;;;4.22;3.03;;;5.80;99.90;;;;;;5069617;28;20188;-76
2023/01/20 09:34:52;;;;;;;6.60;3.63;;;5.80;99.90;;;;;;5069352;28;20181;-76
2023/01/20 09:43:55;;;;;;;5.43;3.75;;;6.00;99.90;;;;;;5064757;28;20176;-79
2023/01/20 09:46:21;;;;;;;5.90;3.45;;;6.10;99.90;;;;;;5039147;28;20223;-79
2023/01/20 09:55:13;;;;;;;4.55;3.47;;;6.30;99.90;;;;;;5069185;28;20168;-77
2023/01/20 09:57:42;;;;;;;4.82;3.08;;;6.40;99.90;;;;;;5052933;28;20207;-77
2023/01/20 10:00:15;;;;;;;4.30;3.22;;;6.40;99.90;;;;;;5056743;28;20173;-77
2023/01/20 10:02:45;;;;;;;5.38;3.50;;;6.40;99.90;;;;;;5053291;28;20175;-76
2023/01/20 10:05:15;;;;;;;5.10;3.95;;;6.40;99.90;;;;;;5034937;28;20732;-76
2023/01/20 10:07:50;;;;;;;4.70;3.05;;;6.40;99.90;;;;;;5048991;28;20269;-76
2023/01/20 10:10:19;;;;;;;7.93;4.57;;;6.50;99.90;;;;;;5070612;28;20526;-76
2023/01/20 10:13:13;;;;;;;6.70;3.10;;;6.50;99.90;;;;;;5070425;28;20781;-76
2023/01/20 10:16:02;;;;;;;4.30;3.45;;;6.60;99.90;;;;;;5052726;28;20255;-77
2023/01/20 10:18:47;;;;;;;5.50;3.05;;;6.60;99.90;;;;;;5067801;28;20177;-78
2023/01/20 10:21:21;;;;;;;3.83;2.83;;;6.70;99.90;;;;;;5054077;28;20584;-78
2023/01/20 10:24:17;;;;;;;3.20;2.83;;;6.80;99.90;;;;;;5063854;28;20197;-77
2023/01/20 10:26:55;;;;;;;3.53;2.55;;;6.90;99.90;;;;;;5057625;28;20279;-77
2023/01/20 10:29:42;;;;;;;4.60;3.03;;;6.90;99.90;;;;;;5066615;28;20176;-80
2023/01/20 10:32:31;;;;;;;4.85;2.70;;;6.90;99.90;;;;;;5055641;28;20182;-76
2023/01/20 10:34:58;;;;;;;5.35;3.65;;;7.00;99.90;;;;;;5054523;28;20168;-76
2023/01/20 10:37:25;;;;;;;4.35;3.80;;;7.00;99.90;;;;;;5053813;28;20210;-76
2023/01/20 10:39:56;;;;;;;4.20;3.15;;;6.90;99.90;;;;;;5073781;28;20226;-76
2023/01/20 10:42:23;;;;;;;6.05;4.63;;;6.80;99.90;;;;;;5072984;28;20176;-77
2023/01/20 10:44:51;;;;;;;6.03;3.85;;;6.60;99.90;;;;;;5053453;28;20176;-76
2023/01/20 10:47:16;;;;;;;6.93;4.32;;;6.50;99.90;;;;;;5071363;28;20246;-79
2023/01/20 10:50:01;;;;;;;6.17;4.53;;;6.40;99.90;;;;;;5053211;28;20176;-76
2023/01/20 10:52:45;;;;;;;12.27;4.90;;;6.40;99.90;;;;;;5054447;28;20176;-76
2023/01/20 10:55:27;;;;;;;9.05;4.18;;;6.30;99.90;;;;;;5037717;28;20271;-76
2023/01/20 10:57:59;;;;;;;5.50;4.32;;;6.20;99.90;;;;;;5054691;28;20238;-77
2023/01/20 11:00:28;;;;;;;5.15;3.47;;;6.10;99.90;;;;;;5054071;28;20226;-77
2023/01/20 11:02:57;;;;;;;5.93;4.30;;;6.10;99.90;;;;;;5053548;28;20168;-76
2023/01/20 11:05:29;;;;;;;6.55;3.70;;;6.20;99.90;;;;;;5070562;28;20168;-76
2023/01/20 11:07:57;;;;;;;6.95;4.72;;;6.30;99.90;;;;;;5053907;28;20261;-76
2023/01/20 11:10:25;;;;;;;5.72;4.30;;;6.30;99.90;;;;;;5069192;28;20194;-77
2023/01/20 11:12:55;;;;;;;4.35;3.45;;;6.20;99.90;;;;;;5073840;28;20211;-77
2023/01/20 11:15:25;;;;;;;5.30;4.38;;;6.10;99.90;;;;;;5092367;28;20574;-77
2023/01/20 11:18:12;;;;;;;8.10;4.43;;;6.10;99.90;;;;;;5077475;28;20199;-77
2023/01/20 11:20:45;;;;;;;5.75;4.28;;;6.00;99.90;;;;;;5067345;28;20190;-78
2023/01/20 11:23:33;;;;;;;7.85;4.57;;;5.90;99.90;;;;;;5091780;28;20172;-78
2023/01/20 11:26:08;;;;;;;6.15;4.45;;;5.80;99.90;;;;;;5073559;28;20199;-78
2023/01/20 11:29:02;;;;;;;8.75;5.10;;;5.80;99.90;;;;;;5085077;28;20566;-78
2023/01/20 11:31:44;;;;;;;7.35;5.53;;;5.60;99.90;;;;;;5036845;28;20179;-78
2023/01/20 11:34:27;;;;;;;10.88;5.65;;;5.60;99.90;;;;;;5073676;28;20228;-78
2023/01/20 11:37:05;;;;;;;7.75;5.63;;;5.60;99.90;;;;;;5092000;28;20195;-79
2023/01/20 11:39:48;;;;;;;10.30;5.80;;;5.60;99.90;;;;;;5073755;28;20170;-78
2023/01/20 11:42:23;;;;;;;10.10;5.60;;;5.60;99.90;;;;;;5056588;28;20214;-78
2023/01/20 11:44:55;;;;;;;7.28;4.40;;;5.60;99.90;;;;;;5090426;28;20175;-78
2023/01/20 11:47:27;;;;;;;5.45;4.65;;;5.60;99.90;;;;;;5092016;28;20184;-78
2023/01/20 11:50:08;;;;;;;6.28;4.53;;;5.60;99.90;;;;;;5073147;28;20167;-78
2023/01/20 11:52:41;;;;;;;7.95;5.00;;;5.70;99.90;;;;;;5091565;28;20651;-78
2023/01/20 11:55:22;;;;;;;10.55;6.07;;;5.80;99.90;;;;;;5095323;28;20520;-78
2023/01/20 11:58:01;;;;;;;10.85;6.60;;;5.80;99.90;;;;;;5091128;28;20253;-78
2023/01/20 12:00:42;;;;;;;10.02;6.38;;;5.80;99.90;;;;;;5072566;28;20635;-78
2023/01/20 12:03:36;;;;;;;9.25;6.13;;;5.80;99.90;;;;;;5091315;28;20160;-78
2023/01/20 12:06:13;;;;;;;9.20;6.50;;;5.90;99.90;;;;;;5073217;28;20244;-78
2023/01/20 12:08:49;;;;;;;5.75;4.72;;;5.90;99.90;;;;;;5056614;28;20612;-78
2023/01/20 12:11:33;;;;;;;7.53;4.40;;;5.90;99.90;;;;;;5090567;28;20506;-78
2023/01/20 12:14:33;;;;;;;5.20;3.92;;;6.00;99.90;;;;;;5056206;28;20193;-78
2023/01/20 12:17:01;;;;;;;6.43;5.03;;;6.10;99.90;;;;;;5040326;28;20207;-79
2023/01/20 12:19:58;;;;;;;6.90;4.80;;;6.10;99.90;;;;;;5072832;28;20166;-79
2023/01/20 12:22:31;;;;;;;5.00;3.90;;;6.20;99.90;;;;;;5072732;28;20172;-78
2023/01/20 12:25:06;;;;;;;7.50;4.80;;;6.10;99.90;;;;;;5072662;28;20533;-78
2023/01/20 12:27:34;;;;;;;5.20;4.55;;;6.20;99.90;;;;;;5072364;28;20207;-78
2023/01/20 12:30:04;;;;;;;5.05;3.55;;;6.20;99.90;;;;;;5072409;28;20198;-78
2023/01/20 12:32:32;;;;;;;6.10;4.10;;;6.30;99.90;;;;;;5075057;28;20186;-77
2023/01/20 12:34:59;;;;;;;4.93;4.32;;;6.30;99.90;;;;;;5091320;28;20180;-76
2023/01/20 12:37:57;;;;;;;8.27;5.45;;;6.40;99.90;;;;;;5090626;28;20202;-77
2023/01/20 12:40:43;;;;;;;6.88;4.85;;;6.40;99.90;;;;;;5090052;28;20275;-77
2023/01/20 12:43:20;;;;;;;7.30;4.47;;;6.40;99.90;;;;;;5090183;28;20172;-78
2023/01/20 12:45:46;;;;;;;5.43;4.63;;;6.50;99.90;;;;;;5056773;28;20236;-79
2023/01/20 12:48:30;;;;;;;5.63;4.87;;;6.50;99.90;;;;;;5072321;28;20589;-79
2023/01/20 12:51:28;;;;;;;5.40;4.43;;;6.50;99.90;;;;;;5072221;28;20657;-78
2023/01/20 12:54:24;;;;;;;6.55;4.93;;;6.50;99.90;;;;;;5034233;28;20196;-79
2023/01/20 12:57:00;;;;;;;5.32;4.15;;;6.50;99.90;;;;;;5070986;28;20203;-79
2023/01/20 12:59:45;;;;;;;5.22;4.55;;;6.50;99.90;;;;;;5090709;28;20250;-78
2023/01/20 13:02:36;;;;;;;6.22;5.22;;;6.40;99.90;;;;;;5071687;28;20179;-78
2023/01/20 13:05:28;;;;;;;7.03;4.78;;;6.30;99.90;;;;;;5072408;28;20199;-78
2023/01/20 13:08:09;;;;;;;7.00;4.80;;;6.20;99.90;;;;;;5072179;28;20199;-78
2023/01/20 13:10:34;;;;;;;7.13;5.50;;;6.00;99.90;;;;;;5076270;28;20292;-78
2023/01/20 13:13:22;;;;;;;6.07;4.67;;;5.80;99.90;;;;;;5090315;28;20376;-78
2023/01/20 13:15:57;;;;;;;6.38;4.80;;;5.70;99.90;;;;;;5090316;28;20171;-78
2023/01/20 13:18:28;;;;;;;6.60;5.00;;;5.50;99.90;;;;;;5072022;28;20187;-78
2023/01/20 13:20:54;;;;;;;7.35;5.20;;;5.40;99.90;;;;;;5090071;28;20592;-78
2023/01/20 13:23:34;;;;;;;6.55;5.00;;;5.20;99.90;;;;;;5089636;28;20179;-77
2023/01/20 13:26:02;;;;;;;6.28;4.90;;;5.10;99.90;;;;;;5071439;28;20245;-77
2023/01/20 13:28:29;;;;;;;6.95;5.88;;;5.00;99.90;;;;;;5071982;28;20255;-77